Time;durP1;ratioP1;P1;durP2;ratioP2;P2;SDS_P1;SDS_P2;PMS_P1;PMS_P2;Temp;Humidity;BMP_temperature;BMP_pressure;BME280_temperature;BME280_humidity;BME280_pressure;Samples;Min_cycle;Max_cycle;Signal;HPM_P1;HPM_P2
2023/10/06 00:00:53;;;;;;;7.95;2.95;;;13.40;99.90;;;;;;4940557;29;20048;-87
2023/10/06 00:03:20;;;;;;;8.63;3.03;;;13.40;99.90;;;;;;4933890;29;20131;-87
2023/10/06 00:05:53;;;;;;;9.32;3.40;;;13.40;99.90;;;;;;4936314;29;20077;-87
2023/10/06 00:08:54;;;;;;;8.40;3.08;;;13.40;99.90;;;;;;4921349;29;20044;-86
2023/10/06 00:11:15;;;;;;;7.60;3.00;;;13.40;99.90;;;;;;4958160;29;20135;-87
2023/10/06 00:13:52;;;;;;;10.55;3.00;;;13.40;99.90;;;;;;4927901;29;20370;-87
2023/10/06 00:16:19;;;;;;;7.20;3.35;;;13.40;99.90;;;;;;4931353;29;20141;-88
2023/10/06 00:18:47;;;;;;;11.80;3.58;;;13.40;99.90;;;;;;4949314;29;20247;-87
2023/10/06 00:21:21;;;;;;;12.07;3.53;;;13.40;99.90;;;;;;4922306;29;20519;-87
2023/10/06 00:23:48;;;;;;;9.27;2.80;;;13.40;99.90;;;;;;4924558;29;20044;-88
2023/10/06 00:26:16;;;;;;;9.27;3.00;;;13.40;99.90;;;;;;4921966;29;20059;-88
2023/10/06 00:28:46;;;;;;;9.35;2.75;;;13.40;99.90;;;;;;4939903;29;20044;-88
2023/10/06 00:31:14;;;;;;;6.68;2.88;;;13.40;99.90;;;;;;4952482;29;20180;-87
2023/10/06 00:33:42;;;;;;;8.43;2.97;;;13.40;99.90;;;;;;4936747;29;20449;-87
2023/10/06 00:36:15;;;;;;;10.82;2.95;;;13.40;99.90;;;;;;4952616;29;20056;-88
2023/10/06 00:38:50;;;;;;;9.45;2.78;;;13.40;99.90;;;;;;4933277;29;20049;-88
2023/10/06 00:41:19;;;;;;;8.55;2.78;;;13.40;99.90;;;;;;4931316;29;20051;-87
2023/10/06 00:43:46;;;;;;;13.73;3.10;;;13.40;99.90;;;;;;4938330;29;20047;-87
2023/10/06 00:46:14;;;;;;;12.05;3.30;;;13.40;99.90;;;;;;4939504;29;20043;-87
2023/10/06 00:48:43;;;;;;;8.38;3.05;;;13.40;99.90;;;;;;4936614;29;20052;-88
2023/10/06 00:51:19;;;;;;;10.85;3.40;;;13.40;99.90;;;;;;4936255;29;20044;-87
2023/10/06 00:53:46;;;;;;;10.93;3.20;;;13.40;99.90;;;;;;4959182;29;20143;-88
2023/10/06 00:56:16;;;;;;;12.90;3.47;;;13.40;99.90;;;;;;4966695;29;20544;-88
2023/10/06 00:58:43;;;;;;;13.52;3.45;;;13.40;99.90;;;;;;4939562;29;20036;-87
2023/10/06 01:01:17;;;;;;;11.15;2.97;;;13.40;99.90;;;;;;4935967;29;20139;-88
2023/10/06 01:03:48;;;;;;;8.70;3.50;;;13.40;99.90;;;;;;4956375;29;20091;-88
2023/10/06 01:06:23;;;;;;;8.57;3.50;;;13.40;99.90;;;;;;4932542;29;20058;-88
2023/10/06 01:09:05;;;;;;;10.13;3.88;;;13.40;99.90;;;;;;4946306;29;20048;-87
2023/10/06 01:11:46;;;;;;;10.30;3.78;;;13.30;99.90;;;;;;4935915;29;20065;-87
2023/10/06 01:14:27;;;;;;;8.68;3.40;;;13.30;99.90;;;;;;4956468;29;20400;-87
2023/10/06 01:19:53;;;;;;;14.18;3.80;;;13.30;99.90;;;;;;4939761;29;20107;-87
2023/10/06 01:22:29;;;;;;;12.43;3.88;;;13.30;99.90;;;;;;4935273;29;20047;-87
2023/10/06 01:24:58;;;;;;;10.48;4.40;;;13.30;99.90;;;;;;4939198;29;20095;-87
2023/10/06 01:27:28;;;;;;;10.45;3.67;;;13.30;99.90;;;;;;4932656;29;20054;-87
2023/10/06 01:32:45;;;;;;;10.93;3.80;;;13.30;99.90;;;;;;4935442;29;20052;-87
2023/10/06 01:35:13;;;;;;;11.70;4.10;;;13.30;99.90;;;;;;4923583;29;20131;-87
2023/10/06 01:37:44;;;;;;;13.27;4.82;;;13.30;99.90;;;;;;4938616;29;20083;-88
2023/10/06 01:40:35;;;;;;;9.02;4.55;;;13.40;99.90;;;;;;4938666;29;20059;-87
2023/10/06 01:43:09;;;;;;;11.20;4.35;;;13.30;99.90;;;;;;4951961;29;20464;-87
2023/10/06 01:45:43;;;;;;;15.63;4.05;;;13.30;99.90;;;;;;4951083;29;20070;-87
2023/10/06 01:50:41;;;;;;;11.45;4.20;;;13.40;99.90;;;;;;4953818;29;20047;-88
2023/10/06 01:53:15;;;;;;;9.90;4.40;;;13.30;99.90;;;;;;4938609;29;20047;-87
2023/10/06 01:55:42;;;;;;;9.50;4.40;;;13.40;99.90;;;;;;4927044;29;20039;-87
2023/10/06 01:58:11;;;;;;;15.25;4.15;;;13.40;99.90;;;;;;4929638;29;20048;-87
2023/10/06 02:00:38;;;;;;;12.30;4.93;;;13.40;99.90;;;;;;4931735;29;20048;-87
2023/10/06 02:03:10;;;;;;;11.52;4.50;;;13.40;99.90;;;;;;4950312;29;20095;-87
2023/10/06 02:05:39;;;;;;;12.30;4.75;;;13.40;99.90;;;;;;4937767;29;20131;-87
2023/10/06 02:08:09;;;;;;;11.52;4.80;;;13.40;99.90;;;;;;4919138;29;20066;-87
2023/10/06 02:10:36;;;;;;;13.45;5.20;;;13.40;99.90;;;;;;4947204;29;20055;-87
2023/10/06 02:13:06;;;;;;;9.38;4.82;;;13.40;99.90;;;;;;4958076;29;20515;-87
2023/10/06 02:15:33;;;;;;;11.75;4.90;;;13.40;99.90;;;;;;4925782;29;20123;-88
2023/10/06 02:18:00;;;;;;;14.80;5.80;;;13.50;99.90;;;;;;4928451;29;20039;-88
2023/10/06 02:23:00;;;;;;;12.80;5.28;;;13.50;99.90;;;;;;4936310;29;20558;-88
2023/10/06 02:25:31;;;;;;;14.82;5.78;;;13.50;99.90;;;;;;4925180;29;20412;-88
2023/10/06 02:28:04;;;;;;;12.63;5.28;;;13.50;99.90;;;;;;4927889;29;20052;-88
2023/10/06 02:30:33;;;;;;;10.40;5.13;;;13.50;99.90;;;;;;4937617;29;20044;-87
2023/10/06 02:33:00;;;;;;;11.32;4.85;;;13.60;99.90;;;;;;4962039;29;20130;-87
2023/10/06 02:35:27;;;;;;;15.13;5.63;;;13.60;99.90;;;;;;4937417;29;20195;-87
2023/10/06 02:37:57;;;;;;;15.95;5.63;;;13.50;99.90;;;;;;4925454;29;20036;-87
2023/10/06 02:40:37;;;;;;;11.57;5.50;;;13.50;99.90;;;;;;4937848;29;20040;-87
2023/10/06 02:43:09;;;;;;;13.30;5.28;;;13.50;99.90;;;;;;4924758;29;20087;-87
2023/10/06 02:45:40;;;;;;;16.33;6.25;;;13.60;99.90;;;;;;4937367;29;20040;-87
2023/10/06 02:48:14;;;;;;;13.25;5.22;;;13.60;99.90;;;;;;4924817;29;20044;-87
2023/10/06 02:50:44;;;;;;;10.73;4.78;;;13.60;99.90;;;;;;4937265;29;20509;-88
2023/10/06 02:53:14;;;;;;;12.35;5.40;;;13.60;99.90;;;;;;4925278;29;20047;-87
2023/10/06 02:55:44;;;;;;;16.23;5.85;;;13.60;99.90;;;;;;4918547;29;20044;-87
2023/10/06 02:58:19;;;;;;;14.82;5.35;;;13.60;99.90;;;;;;4924200;29;20050;-88
2023/10/06 03:00:50;;;;;;;14.13;5.03;;;13.50;99.90;;;;;;4926964;29;20055;-87
2023/10/06 03:03:22;;;;;;;12.10;4.90;;;13.50;99.90;;;;;;4929616;29;20170;-87
2023/10/06 03:05:51;;;;;;;12.73;5.05;;;13.50;99.90;;;;;;4936841;29;20058;-88
2023/10/06 03:08:20;;;;;;;12.00;5.65;;;13.50;99.90;;;;;;4932355;29;20036;-88
2023/10/06 03:10:48;;;;;;;13.35;5.53;;;13.50;99.90;;;;;;4937764;29;20039;-88
2023/10/06 03:16:19;;;;;;;12.05;5.18;;;13.50;99.90;;;;;;4932528;29;20102;-87
2023/10/06 03:18:47;;;;;;;11.73;5.22;;;13.50;99.90;;;;;;4925438;29;20071;-87
2023/10/06 03:21:14;;;;;;;10.82;5.22;;;13.50;99.90;;;;;;4947770;29;20055;-87
2023/10/06 03:23:44;;;;;;;11.95;5.03;;;13.50;99.90;;;;;;4924376;29;20044;-87
2023/10/06 03:26:24;;;;;;;10.52;5.65;;;13.50;99.90;;;;;;4944473;29;20131;-87
2023/10/06 03:28:52;;;;;;;15.23;5.30;;;13.50;99.90;;;;;;4955206;29;20055;-87
2023/10/06 03:33:47;;;;;;;13.90;6.05;;;13.50;99.90;;;;;;4960000;29;20055;-87
2023/10/06 03:36:15;;;;;;;17.23;6.10;;;13.40;99.90;;;;;;4940647;29;20512;-87
2023/10/06 03:38:55;;;;;;;14.25;5.35;;;13.40;99.90;;;;;;4937316;29;20040;-87
2023/10/06 03:41:31;;;;;;;11.88;5.80;;;13.40;99.90;;;;;;4939803;29;20138;-87
2023/10/06 03:44:00;;;;;;;10.75;5.57;;;13.40;99.90;;;;;;4947440;29;20062;-88
2023/10/06 03:46:36;;;;;;;17.42;5.97;;;13.40;99.90;;;;;;4939046;29;20040;-87
2023/10/06 03:49:03;;;;;;;14.55;5.65;;;13.40;99.90;;;;;;4940481;29;20432;-87
2023/10/06 03:51:33;;;;;;;13.20;5.63;;;13.40;99.90;;;;;;4940135;29;20155;-87
2023/10/06 03:54:00;;;;;;;12.38;5.72;;;13.40;99.90;;;;;;4956310;29;20477;-87
2023/10/06 03:56:27;;;;;;;13.90;6.35;;;13.40;99.90;;;;;;4936943;29;20091;-87
2023/10/06 03:58:54;;;;;;;12.85;5.65;;;13.40;99.90;;;;;;4968681;29;20510;-87
2023/10/06 04:01:26;;;;;;;18.13;5.90;;;13.40;99.90;;;;;;4969818;29;20066;-87
2023/10/06 04:03:59;;;;;;;15.40;6.30;;;13.40;99.90;;;;;;4956699;29;20049;-87
2023/10/06 04:06:27;;;;;;;11.50;6.32;;;13.40;99.90;;;;;;4965875;29;20100;-87
2023/10/06 04:08:56;;;;;;;14.70;6.72;;;13.40;99.90;;;;;;4936953;29;20040;-88
2023/10/06 04:11:29;;;;;;;11.50;6.32;;;13.40;99.90;;;;;;4959662;29;20058;-87
2023/10/06 04:13:56;;;;;;;15.90;6.03;;;13.40;99.90;;;;;;4940781;29;20484;-88
2023/10/06 04:16:23;;;;;;;18.08;6.53;;;13.40;99.90;;;;;;4936660;29;20128;-87
2023/10/06 04:18:49;;;;;;;15.50;6.20;;;13.40;99.90;;;;;;4968270;29;20044;-87
2023/10/06 04:21:17;;;;;;;17.42;6.50;;;13.40;99.90;;;;;;4952680;29;20135;-88
2023/10/06 04:23:44;;;;;;;11.70;6.18;;;13.40;99.90;;;;;;4939229;29;20135;-89
2023/10/06 04:26:14;;;;;;;13.77;5.78;;;13.40;99.90;;;;;;4959159;29;20055;-88
2023/10/06 04:28:42;;;;;;;18.08;6.63;;;13.40;99.90;;;;;;4958887;29;20082;-88
2023/10/06 04:31:09;;;;;;;18.75;7.05;;;13.50;99.90;;;;;;4958667;29;20047;-88
2023/10/06 04:33:35;;;;;;;11.73;6.05;;;13.40;99.90;;;;;;4958675;29;20122;-88
2023/10/06 04:36:08;;;;;;;13.95;6.10;;;13.40;99.90;;;;;;4974991;29;20130;-87
2023/10/06 04:38:39;;;;;;;12.40;6.07;;;13.40;99.90;;;;;;4940598;29;20453;-88
2023/10/06 04:41:08;;;;;;;18.00;6.10;;;13.40;99.90;;;;;;4938348;29;20068;-88
2023/10/06 04:43:44;;;;;;;12.40;6.25;;;13.40;99.90;;;;;;4989782;28;20044;-88
2023/10/06 04:46:12;;;;;;;13.20;5.75;;;13.40;99.90;;;;;;4923744;29;20122;-87
2023/10/06 04:48:38;;;;;;;16.00;5.90;;;13.40;99.90;;;;;;4954732;29;20044;-88
2023/10/06 04:51:13;;;;;;;13.95;5.78;;;13.40;99.90;;;;;;4969599;29;20485;-87
2023/10/06 04:53:40;;;;;;;12.43;5.78;;;13.40;99.90;;;;;;4990221;28;20059;-87
2023/10/06 04:56:10;;;;;;;15.65;5.80;;;13.40;99.90;;;;;;4967646;29;20051;-88
2023/10/06 04:58:42;;;;;;;13.27;5.88;;;13.40;99.90;;;;;;4969277;29;20189;-87
2023/10/06 05:01:08;;;;;;;11.52;5.82;;;13.40;99.90;;;;;;4967590;29;20092;-87
2023/10/06 05:03:45;;;;;;;11.70;5.60;;;13.40;99.90;;;;;;4984613;29;20043;-87
2023/10/06 05:06:16;;;;;;;13.05;5.80;;;13.40;99.90;;;;;;4936484;29;20048;-87
2023/10/06 05:08:49;;;;;;;13.65;6.20;;;13.40;99.90;;;;;;4964822;29;20094;-87
2023/10/06 05:11:17;;;;;;;12.18;5.55;;;13.30;99.90;;;;;;4983258;29;20047;-87
2023/10/06 05:13:44;;;;;;;16.70;5.50;;;13.40;99.90;;;;;;4986506;29;20094;-87
2023/10/06 05:16:11;;;;;;;15.52;5.45;;;13.30;99.90;;;;;;4994368;28;20051;-88
2023/10/06 05:18:39;;;;;;;14.68;6.45;;;13.40;99.90;;;;;;4950975;29;20032;-88
2023/10/06 05:21:08;;;;;;;12.48;5.38;;;13.70;99.90;;;;;;4986710;28;20075;-88
2023/10/06 05:23:35;;;;;;;12.55;5.70;;;13.40;99.90;;;;;;4939372;29;20047;-88
2023/10/06 05:26:07;;;;;;;14.35;5.00;;;13.40;99.90;;;;;;4936685;29;20048;-88
2023/10/06 05:28:37;;;;;;;14.15;5.38;;;13.30;99.90;;;;;;4937043;29;20075;-88
2023/10/06 05:31:06;;;;;;;12.63;5.43;;;13.30;99.90;;;;;;4944593;29;20052;-88
2023/10/06 05:33:34;;;;;;;11.13;4.68;;;13.30;99.90;;;;;;4936547;29;20038;-88
2023/10/06 05:36:09;;;;;;;18.40;5.72;;;13.30;99.90;;;;;;4928394;29;20076;-87
2023/10/06 05:38:37;;;;;;;12.10;5.75;;;13.30;99.90;;;;;;4951246;29;20123;-88
2023/10/06 05:41:07;;;;;;;15.13;5.40;;;13.40;99.90;;;;;;4958540;29;20044;-88
2023/10/06 05:43:34;;;;;;;12.18;5.13;;;13.30;99.90;;;;;;4931808;29;20040;-88
2023/10/06 05:46:03;;;;;;;11.85;5.00;;;13.30;99.90;;;;;;4919584;29;20103;-88
2023/10/06 05:48:30;;;;;;;12.65;5.15;;;13.30;99.90;;;;;;4938158;29;20044;-88
2023/10/06 05:51:04;;;;;;;11.95;5.07;;;13.30;99.90;;;;;;4962447;29;20127;-87
2023/10/06 05:53:38;;;;;;;13.20;4.93;;;13.30;99.90;;;;;;4937884;29;20036;-88
2023/10/06 05:56:08;;;;;;;12.77;5.18;;;13.30;99.90;;;;;;4935803;29;20079;-87
2023/10/06 05:58:37;;;;;;;13.23;5.10;;;13.40;99.90;;;;;;4928487;29;20042;-88
2023/10/06 06:01:10;;;;;;;13.07;5.13;;;13.30;99.90;;;;;;4937926;29;20115;-87
2023/10/06 06:03:44;;;;;;;13.52;4.82;;;13.30;99.90;;;;;;4927868;29;20126;-88
2023/10/06 06:06:14;;;;;;;17.95;5.60;;;13.30;99.90;;;;;;4920798;29;20044;-88
2023/10/06 06:08:47;;;;;;;13.43;5.25;;;13.30;99.90;;;;;;4919223;29;20052;-88
2023/10/06 06:11:14;;;;;;;12.80;5.30;;;13.30;99.90;;;;;;4945346;29;20039;-87
2023/10/06 06:13:42;;;;;;;13.95;4.90;;;13.30;99.90;;;;;;4928423;29;20197;-88
2023/10/06 06:16:08;;;;;;;12.70;4.78;;;13.30;99.90;;;;;;4919324;29;20044;-88
2023/10/06 06:18:37;;;;;;;9.18;4.85;;;13.30;99.90;;;;;;4939800;29;20167;-88
2023/10/06 06:21:05;;;;;;;10.30;4.85;;;13.40;99.90;;;;;;4959792;29;20040;-87
2023/10/06 06:23:33;;;;;;;13.10;5.30;;;13.40;99.90;;;;;;4929469;29;20044;-88
2023/10/06 06:26:00;;;;;;;15.70;5.32;;;13.40;99.90;;;;;;4922342;29;20040;-87
2023/10/06 06:28:28;;;;;;;12.70;5.22;;;13.40;99.90;;;;;;4932798;29;20044;-87
2023/10/06 06:30:54;;;;;;;10.48;5.18;;;13.40;99.90;;;;;;4934893;29;20128;-87
2023/10/06 06:33:25;;;;;;;13.98;5.53;;;13.40;99.90;;;;;;4956374;29;20130;-87
2023/10/06 06:35:52;;;;;;;16.35;5.70;;;13.40;99.90;;;;;;4937251;29;20499;-87
2023/10/06 06:38:19;;;;;;;11.38;5.20;;;13.40;99.90;;;;;;4927163;29;20036;-87
2023/10/06 06:40:46;;;;;;;11.27;4.53;;;13.40;99.90;;;;;;4950160;29;20059;-87
2023/10/06 06:43:12;;;;;;;14.20;5.00;;;13.50;99.90;;;;;;4921615;29;20127;-87
2023/10/06 06:45:39;;;;;;;12.38;5.05;;;13.50;99.90;;;;;;4944209;29;20067;-86
2023/10/06 06:48:13;;;;;;;15.43;5.60;;;13.50;99.90;;;;;;4922463;29;20044;-88
2023/10/06 06:50:44;;;;;;;9.35;5.07;;;13.50;99.90;;;;;;4939806;29;20047;-88
2023/10/06 06:53:11;;;;;;;10.30;5.15;;;13.60;99.90;;;;;;4941730;29;20044;-87
2023/10/06 06:55:38;;;;;;;11.90;5.18;;;13.70;99.90;;;;;;4926863;29;20393;-87
2023/10/06 06:58:10;;;;;;;14.00;5.80;;;13.60;99.90;;;;;;4929085;29;20044;-87
2023/10/06 07:00:41;;;;;;;12.30;5.18;;;13.60;99.90;;;;;;4951575;29;20043;-88
2023/10/06 07:03:08;;;;;;;11.05;5.00;;;13.60;99.90;;;;;;4933226;29;20075;-88
2023/10/06 07:05:35;;;;;;;13.27;5.15;;;13.70;99.90;;;;;;4918443;29;20094;-87
2023/10/06 07:08:04;;;;;;;14.18;5.15;;;13.70;99.90;;;;;;4935379;29;20131;-83
2023/10/06 07:10:31;;;;;;;14.52;5.53;;;13.70;99.90;;;;;;4936296;29;20051;-81
2023/10/06 07:13:00;;;;;;;15.52;5.30;;;13.70;99.90;;;;;;4917466;29;20040;-87
2023/10/06 07:15:30;;;;;;;12.80;5.45;;;13.70;99.90;;;;;;4937525;29;20127;-84
2023/10/06 07:17:58;;;;;;;12.20;5.13;;;13.80;99.90;;;;;;4929533;29;20127;-83
2023/10/06 07:20:27;;;;;;;10.13;4.80;;;13.80;99.90;;;;;;4936481;29;20082;-83
2023/10/06 07:23:00;;;;;;;14.85;5.25;;;13.80;99.90;;;;;;4922487;29;20044;-83
2023/10/06 07:25:27;;;;;;;14.02;5.63;;;13.90;99.90;;;;;;4934454;29;20048;-83
2023/10/06 07:27:57;;;;;;;13.00;5.13;;;13.90;99.90;;;;;;4937623;29;20067;-84
2023/10/06 07:30:26;;;;;;;13.88;5.72;;;13.90;99.90;;;;;;4948682;29;20036;-83
2023/10/06 07:32:56;;;;;;;15.38;5.70;;;14.00;99.90;;;;;;4964614;29;20051;-84
2023/10/06 07:35:36;;;;;;;13.98;5.43;;;14.10;99.90;;;;;;4943837;29;20222;-84
2023/10/06 07:38:03;;;;;;;11.38;4.82;;;14.10;99.90;;;;;;4934393;29;20405;-84
2023/10/06 07:40:30;;;;;;;11.90;5.13;;;14.20;99.90;;;;;;4936231;29;20040;-83
2023/10/06 07:42:57;;;;;;;10.70;4.90;;;14.20;99.90;;;;;;4933041;29;20405;-84
2023/10/06 07:45:26;;;;;;;18.05;5.88;;;14.30;99.90;;;;;;4963763;29;20055;-84
2023/10/06 07:47:54;;;;;;;13.32;5.45;;;14.30;99.90;;;;;;4929803;29;20051;-83
2023/10/06 07:50:21;;;;;;;11.15;5.03;;;14.40;99.90;;;;;;4945504;29;20044;-94
2023/10/06 07:52:48;;;;;;;18.90;5.32;;;14.50;99.90;;;;;;4950508;29;20051;-85
2023/10/06 07:55:16;;;;;;;15.60;5.35;;;14.50;99.90;;;;;;4982128;29;20166;-85
2023/10/06 07:57:51;;;;;;;18.40;5.22;;;14.50;99.90;;;;;;4936537;29;20122;-85
2023/10/06 08:00:27;;;;;;;13.10;5.25;;;14.60;99.90;;;;;;4936503;29;20448;-79
2023/10/06 08:03:03;;;;;;;12.18;5.50;;;14.60;99.90;;;;;;4936670;29;20504;-85
2023/10/06 08:05:30;;;;;;;13.38;5.35;;;14.70;99.90;;;;;;4964751;29;20043;-85
2023/10/06 08:08:00;;;;;;;12.88;5.18;;;14.80;99.90;;;;;;4939218;29;20054;-83
2023/10/06 08:10:30;;;;;;;15.10;6.10;;;14.80;99.90;;;;;;4936688;29;20096;-89
2023/10/06 08:13:03;;;;;;;14.13;5.05;;;14.80;99.90;;;;;;4955889;29;20039;-87
2023/10/06 08:15:32;;;;;;;13.80;5.68;;;14.80;99.90;;;;;;4948987;29;20043;-95
2023/10/06 08:18:01;;;;;;;14.30;5.68;;;14.80;99.90;;;;;;4939841;29;20600;-96
2023/10/06 08:20:29;;;;;;;18.58;5.97;;;14.80;99.90;;;;;;4941596;29;20048;-96
2023/10/06 08:22:59;;;;;;;13.20;5.55;;;14.80;99.90;;;;;;4942215;29;20050;-96
2023/10/06 08:25:29;;;;;;;12.18;5.55;;;14.80;99.90;;;;;;4948492;29;20044;-96
2023/10/06 08:27:59;;;;;;;16.08;6.38;;;14.80;99.90;;;;;;4975912;28;20064;-96
2023/10/06 08:30:34;;;;;;;15.68;6.65;;;14.80;99.90;;;;;;4964318;29;20045;-96
2023/10/06 08:33:08;;;;;;;12.52;5.53;;;14.70;99.90;;;;;;4967718;29;20044;-95
2023/10/06 08:35:41;;;;;;;14.85;6.13;;;14.70;99.90;;;;;;4946767;29;20082;-96
2023/10/06 08:38:09;;;;;;;14.85;6.63;;;14.80;99.90;;;;;;4937241;29;20044;-93
2023/10/06 08:41:07;;;;;;;14.60;6.05;;;14.90;99.90;;;;;;4932441;29;20045;-94
2023/10/06 08:44:07;;;;;;;13.45;5.78;;;14.90;99.90;;;;;;4937780;29;20051;-95
2023/10/06 08:47:01;;;;;;;16.85;6.32;;;15.00;99.90;;;;;;4933712;29;20048;-95
2023/10/06 08:49:34;;;;;;;11.48;5.22;;;15.00;99.90;;;;;;4954153;29;20041;-94
2023/10/06 08:52:03;;;;;;;14.63;6.25;;;15.10;99.90;;;;;;4942539;29;20045;-95
2023/10/06 08:54:42;;;;;;;14.52;5.95;;;15.20;99.90;;;;;;4955374;29;20072;-95
2023/10/06 08:57:15;;;;;;;13.45;5.72;;;15.10;99.90;;;;;;4938290;29;20515;-94
2023/10/06 09:00:06;;;;;;;14.77;5.80;;;15.20;99.90;;;;;;4941946;29;20450;-94
2023/10/06 09:02:51;;;;;;;14.32;6.15;;;15.30;99.90;;;;;;4941037;29;20032;-93
2023/10/06 09:05:22;;;;;;;10.77;5.75;;;15.50;99.90;;;;;;4938350;29;20103;-94
2023/10/06 09:08:06;;;;;;;11.82;5.47;;;15.40;99.90;;;;;;4940879;29;20044;-93
2023/10/06 09:10:37;;;;;;;14.30;6.03;;;15.50;99.90;;;;;;4936567;29;20075;-94
2023/10/06 09:13:08;;;;;;;16.50;6.05;;;15.50;99.90;;;;;;4936116;29;20044;-93
2023/10/06 09:16:06;;;;;;;15.07;5.80;;;15.60;99.90;;;;;;4960753;29;20071;-96
2023/10/06 09:18:58;;;;;;;13.52;5.28;;;15.70;99.90;;;;;;4933694;29;20049;-92
2023/10/06 09:21:28;;;;;;;15.75;5.90;;;15.70;99.90;;;;;;4935154;29;20534;-88
2023/10/06 09:24:02;;;;;;;12.73;5.78;;;15.60;99.90;;;;;;4932684;29;20064;-91
2023/10/06 09:26:32;;;;;;;13.23;5.07;;;15.70;99.90;;;;;;4930532;29;20078;-87
2023/10/06 09:29:02;;;;;;;16.27;5.40;;;15.70;99.90;;;;;;4926077;29;20048;-87
2023/10/06 09:31:36;;;;;;;13.93;5.43;;;15.60;99.90;;;;;;4938486;29;20176;-87
2023/10/06 09:34:07;;;;;;;11.90;4.97;;;15.70;99.90;;;;;;4939130;29;20510;-87
2023/10/06 09:36:34;;;;;;;11.10;5.32;;;15.70;99.90;;;;;;4937707;29;20043;-87
2023/10/06 09:39:02;;;;;;;10.48;4.95;;;15.80;99.90;;;;;;4936956;29;20087;-88
2023/10/06 09:41:32;;;;;;;8.77;4.35;;;15.70;99.90;;;;;;4937295;29;20044;-86
2023/10/06 09:44:11;;;;;;;11.77;4.82;;;15.80;99.90;;;;;;4941998;29;20080;-87
2023/10/06 09:46:42;;;;;;;14.77;4.75;;;15.80;99.90;;;;;;4944272;29;20131;-88
2023/10/06 09:49:16;;;;;;;16.30;4.88;;;15.90;99.90;;;;;;4946335;29;20052;-88
2023/10/06 09:51:43;;;;;;;9.98;4.10;;;15.90;99.90;;;;;;4935655;29;20079;-87
2023/10/06 09:54:11;;;;;;;12.20;5.10;;;16.00;99.90;;;;;;4926014;29;20449;-87
2023/10/06 09:56:42;;;;;;;15.70;4.90;;;16.10;99.90;;;;;;4924885;29;20075;-87
2023/10/06 09:59:13;;;;;;;10.07;4.30;;;16.20;99.90;;;;;;4927242;29;20068;-88
2023/10/06 10:01:45;;;;;;;12.80;4.88;;;16.20;99.90;;;;;;4930337;29;20099;-88
2023/10/06 10:04:12;;;;;;;13.57;4.57;;;16.20;99.90;;;;;;4939582;29;20140;-86
2023/10/06 10:06:43;;;;;;;9.45;3.67;;;16.30;99.90;;;;;;4922016;29;20531;-87
2023/10/06 10:09:16;;;;;;;15.43;5.07;;;16.30;99.90;;;;;;4922363;29;20126;-87
2023/10/06 10:12:00;;;;;;;9.80;4.20;;;16.50;99.90;;;;;;4933429;29;20032;-88
2023/10/06 10:14:36;;;;;;;12.63;4.70;;;16.60;99.90;;;;;;4932812;29;20122;-91
2023/10/06 10:17:13;;;;;;;11.77;3.95;;;16.80;99.90;;;;;;4932404;29;20047;-89
2023/10/06 10:19:46;;;;;;;14.35;4.72;;;17.00;99.90;;;;;;4925949;29;20477;-87
2023/10/06 10:22:18;;;;;;;11.88;4.20;;;17.20;99.90;;;;;;4951498;29;20046;-93
2023/10/06 10:24:45;;;;;;;9.57;4.35;;;17.10;99.90;;;;;;4925412;29;20060;-89
2023/10/06 10:27:22;;;;;;;14.02;4.40;;;17.10;99.90;;;;;;4921484;29;20064;-91
2023/10/06 10:29:52;;;;;;;13.43;4.05;;;17.10;99.90;;;;;;4934342;29;20052;-92
2023/10/06 10:32:52;;;;;;;15.88;4.65;;;17.10;99.90;;;;;;4919171;29;20140;-92
2023/10/06 10:35:35;;;;;;;9.80;3.92;;;17.10;99.90;;;;;;4922184;29;20151;-91
2023/10/06 10:38:14;;;;;;;12.13;4.05;;;17.20;99.90;;;;;;4918163;29;20040;-90
2023/10/06 10:40:48;;;;;;;7.80;3.63;;;17.20;99.90;;;;;;4931919;29;20048;-91
2023/10/06 10:43:16;;;;;;;10.93;3.88;;;17.20;99.90;;;;;;4953355;29;20048;-89
2023/10/06 10:45:45;;;;;;;15.73;4.78;;;17.30;99.90;;;;;;4935796;29;20386;-92
2023/10/06 10:48:14;;;;;;;14.40;4.50;;;17.40;99.90;;;;;;4941039;29;20068;-88
2023/10/06 10:51:10;;;;;;;12.05;4.03;;;17.50;99.90;;;;;;4922566;29;20043;-89
2023/10/06 10:53:44;;;;;;;13.50;3.88;;;17.50;99.90;;;;;;4937583;29;20485;-90
2023/10/06 10:56:25;;;;;;;13.40;3.92;;;17.50;99.90;;;;;;4937955;29;20110;-89
2023/10/06 10:58:53;;;;;;;9.40;4.00;;;17.60;99.90;;;;;;4932531;29;20076;-88
2023/10/06 11:01:24;;;;;;;9.02;3.92;;;17.60;99.90;;;;;;4949769;29;20445;-88
2023/10/06 11:04:12;;;;;;;12.43;4.10;;;17.50;99.90;;;;;;4931659;29;20044;-87
2023/10/06 11:06:40;;;;;;;9.32;3.72;;;17.60;99.90;;;;;;4945560;29;20052;-88
2023/10/06 11:09:30;;;;;;;12.90;3.78;;;17.50;99.90;;;;;;4937167;29;20044;-88
2023/10/06 11:12:01;;;;;;;11.55;4.03;;;17.50;99.90;;;;;;4937133;29;20442;-89
2023/10/06 11:14:29;;;;;;;9.32;3.75;;;17.50;99.90;;;;;;4952328;29;20489;-87
2023/10/06 11:17:02;;;;;;;8.98;3.78;;;17.50;99.90;;;;;;4926214;29;20122;-88
2023/10/06 11:19:30;;;;;;;10.68;3.78;;;17.50;99.90;;;;;;4935809;29;20099;-87
2023/10/06 11:22:13;;;;;;;9.27;3.72;;;17.50;99.90;;;;;;4933208;29;20048;-88
2023/10/06 11:24:44;;;;;;;9.60;3.92;;;17.50;99.90;;;;;;4927822;29;20039;-88
2023/10/06 11:27:22;;;;;;;9.63;3.55;;;17.60;99.90;;;;;;4934126;29;20060;-87
2023/10/06 11:29:52;;;;;;;11.20;3.67;;;17.70;99.90;;;;;;4953319;29;20054;-88
2023/10/06 11:32:21;;;;;;;8.63;3.13;;;17.80;99.90;;;;;;4917061;29;20076;-89
2023/10/06 11:34:49;;;;;;;8.80;3.45;;;17.90;99.90;;;;;;4939997;29;20044;-87
2023/10/06 11:37:26;;;;;;;9.18;3.13;;;18.00;99.90;;;;;;4961193;29;20078;-90
2023/10/06 11:40:04;;;;;;;10.65;3.20;;;18.10;99.90;;;;;;4931996;29;20043;-91
2023/10/06 11:42:49;;;;;;;12.35;3.60;;;18.20;99.90;;;;;;4925560;29;20040;-94
2023/10/06 11:45:24;;;;;;;9.43;3.22;;;18.20;99.90;;;;;;4935625;29;20054;-92
2023/10/06 11:48:03;;;;;;;12.43;3.10;;;18.30;99.90;;;;;;4941327;29;20076;-88
2023/10/06 11:50:33;;;;;;;9.73;3.22;;;18.20;99.90;;;;;;4922458;29;20044;-89
2023/10/06 11:53:01;;;;;;;11.07;3.10;;;18.20;99.90;;;;;;4935483;29;20051;-88
2023/10/06 11:55:42;;;;;;;10.57;3.28;;;18.50;99.90;;;;;;4928967;29;20405;-87
2023/10/06 11:58:10;;;;;;;12.43;3.42;;;18.50;99.90;;;;;;4937674;29;20040;-89
2023/10/06 12:00:43;;;;;;;10.65;3.03;;;18.60;99.90;;;;;;4940770;29;20087;-88
2023/10/06 12:03:11;;;;;;;10.27;3.38;;;18.60;99.90;;;;;;4945108;29;20132;-88
2023/10/06 12:05:55;;;;;;;10.93;2.78;;;18.50;99.90;;;;;;4948280;29;20428;-88
2023/10/06 12:08:42;;;;;;;11.48;2.90;;;18.60;99.90;;;;;;4942176;29;20086;-88
2023/10/06 12:11:11;;;;;;;10.57;3.20;;;18.70;99.90;;;;;;4931348;29;20054;-88
2023/10/06 12:13:39;;;;;;;13.48;3.28;;;18.60;99.90;;;;;;4928056;29;20070;-88
2023/10/06 12:16:14;;;;;;;7.88;2.80;;;18.50;99.90;;;;;;4937420;29;20402;-88
2023/10/06 12:18:46;;;;;;;11.15;3.30;;;18.60;99.90;;;;;;4921802;29;20054;-87
2023/10/06 12:21:17;;;;;;;10.27;2.83;;;18.50;99.90;;;;;;4935871;29;20533;-88
2023/10/06 12:23:52;;;;;;;10.85;3.00;;;18.60;99.90;;;;;;4931968;29;20126;-88
2023/10/06 12:26:19;;;;;;;10.48;3.55;;;18.60;99.90;;;;;;4929807;29;20067;-88
2023/10/06 12:28:46;;;;;;;9.38;2.78;;;18.60;99.90;;;;;;4920193;29;20048;-88
2023/10/06 12:31:13;;;;;;;9.98;3.65;;;18.60;99.90;;;;;;4943165;29;20108;-88
2023/10/06 12:33:40;;;;;;;12.38;3.15;;;18.70;99.90;;;;;;4939704;29;20040;-88
2023/10/06 12:36:08;;;;;;;9.30;3.10;;;18.70;99.90;;;;;;4925030;29;20123;-87
2023/10/06 12:38:35;;;;;;;11.48;3.05;;;18.70;99.90;;;;;;4933200;29;20040;-86
2023/10/06 12:41:06;;;;;;;11.43;3.10;;;18.80;99.90;;;;;;4948577;29;20524;-86
2023/10/06 12:43:36;;;;;;;10.02;3.00;;;18.80;99.90;;;;;;4916764;29;20103;-87
2023/10/06 12:46:08;;;;;;;8.52;2.70;;;18.70;99.90;;;;;;4939423;29;20102;-86
2023/10/06 12:48:38;;;;;;;10.57;3.05;;;18.70;99.90;;;;;;4925872;29;20066;-87
2023/10/06 12:51:06;;;;;;;10.38;2.92;;;18.80;99.90;;;;;;4952844;29;20047;-87
2023/10/06 12:53:35;;;;;;;12.02;3.03;;;18.90;99.90;;;;;;4951732;29;20512;-86
2023/10/06 12:56:04;;;;;;;11.02;2.88;;;18.80;99.90;;;;;;4940307;29;20048;-87
2023/10/06 12:58:31;;;;;;;12.50;3.10;;;18.90;99.90;;;;;;4943190;29;20045;-87
2023/10/06 13:00:57;;;;;;;13.00;3.10;;;18.90;99.90;;;;;;4932189;29;20047;-87
2023/10/06 13:03:25;;;;;;;16.30;3.00;;;18.80;99.90;;;;;;4920173;29;20048;-87
2023/10/06 13:05:52;;;;;;;12.55;3.33;;;18.80;99.90;;;;;;4941852;29;20154;-87
2023/10/06 13:08:24;;;;;;;11.68;2.97;;;18.80;99.90;;;;;;4929334;29;20451;-87
2023/10/06 13:10:53;;;;;;;8.57;2.90;;;18.90;99.90;;;;;;4932890;29;20127;-87
2023/10/06 13:13:20;;;;;;;11.38;3.25;;;18.90;99.90;;;;;;4938978;29;20509;-87
2023/10/06 13:15:47;;;;;;;10.02;3.00;;;18.90;99.90;;;;;;4922429;29;20071;-87